createdAt,value
2018-09-20T00:03:35.774Z,12.63
2018-09-20T00:07:39.993Z,13.53
2018-09-20T00:11:44.232Z,10.40
2018-09-20T00:15:48.481Z,11.70
2018-09-20T00:19:52.786Z,11.40
2018-09-20T00:23:57.041Z,13.43
2018-09-20T00:28:01.309Z,10.13
2018-09-20T00:32:05.648Z,10.10
2018-09-20T00:36:09.889Z,12.00
2018-09-20T00:40:14.268Z,9.87
2018-09-20T00:44:18.560Z,11.17
2018-09-20T00:48:22.966Z,9.87
2018-09-20T00:52:27.195Z,11.03
2018-09-20T00:56:31.494Z,11.10
2018-09-20T01:00:35.824Z,11.77
2018-09-20T01:04:40.153Z,11.70
2018-09-20T01:08:44.332Z,11.53
2018-09-20T01:12:48.656Z,11.37
2018-09-20T01:16:52.969Z,10.27
2018-09-20T01:20:57.174Z,9.30
2018-09-20T01:25:01.401Z,10.13
2018-09-20T01:29:05.648Z,9.77
2018-09-20T01:33:09.856Z,8.00
2018-09-20T01:37:14.137Z,8.67
2018-09-20T01:41:18.330Z,9.07
2018-09-20T01:45:22.566Z,11.13
2018-09-20T01:49:26.852Z,11.90
2018-09-20T01:53:31.093Z,10.63
2018-09-20T01:57:35.344Z,8.67
2018-09-20T02:01:39.739Z,8.83
2018-09-20T02:05:44.069Z,9.30
2018-09-20T02:09:48.276Z,9.77
2018-09-20T02:13:52.562Z,12.77
2018-09-20T02:17:56.785Z,8.97
2018-09-20T02:22:00.996Z,10.97
2018-09-20T02:26:05.278Z,12.27
2018-09-20T02:30:09.530Z,9.93
2018-09-20T02:34:13.931Z,9.30
2018-09-20T02:38:18.117Z,9.03
2018-09-20T02:42:22.373Z,10.90
2018-09-20T02:46:26.555Z,12.93
2018-09-20T02:50:30.919Z,10.17
2018-09-20T02:54:35.132Z,11.43
2018-09-20T02:58:39.329Z,10.23
2018-09-20T03:02:43.538Z,9.00
2018-09-20T03:06:47.784Z,10.67
2018-09-20T03:10:52.317Z,11.13
2018-09-20T03:14:56.544Z,9.23
2018-09-20T03:19:00.796Z,11.17
2018-09-20T03:23:05.066Z,9.10
2018-09-20T03:27:09.511Z,10.07
2018-09-20T03:31:13.938Z,10.53
2018-09-20T03:35:18.213Z,7.97
2018-09-20T03:39:22.409Z,11.50
2018-09-20T03:43:26.623Z,9.47
2018-09-20T03:47:30.864Z,10.33
2018-09-20T03:51:35.187Z,10.30
2018-09-20T03:55:39.500Z,9.53
2018-09-20T03:59:43.712Z,10.07
2018-09-20T04:03:48.238Z,8.10
2018-09-20T04:07:52.955Z,7.57
2018-09-20T04:11:57.220Z,9.10
2018-09-20T04:16:01.599Z,9.63
2018-09-20T04:20:06.633Z,8.27
2018-09-20T04:24:10.889Z,8.90
2018-09-20T04:28:15.082Z,8.70
2018-09-20T04:32:19.442Z,8.47
2018-09-20T04:36:23.729Z,8.60
2018-09-20T04:40:28.197Z,10.40
2018-09-20T04:44:32.429Z,8.50
2018-09-20T04:48:36.654Z,8.73
2018-09-20T04:52:40.886Z,9.60
2018-09-20T04:56:45.115Z,13.35
2018-09-20T05:00:49.337Z,12.10
2018-09-20T05:04:53.680Z,9.33
2018-09-20T05:08:57.911Z,11.17
2018-09-20T05:13:02.553Z,9.07
2018-09-20T05:17:06.924Z,11.03
2018-09-20T05:21:11.266Z,9.87
2018-09-20T05:25:15.508Z,10.50
2018-09-20T05:29:19.765Z,13.23
2018-09-20T05:33:24.164Z,11.17
2018-09-20T05:37:28.545Z,10.20
2018-09-20T05:41:32.792Z,9.50
2018-09-20T05:45:37.108Z,10.43
2018-09-20T05:49:41.514Z,9.53
2018-09-20T05:53:45.743Z,9.77
2018-09-20T05:57:50.166Z,10.30
2018-09-20T06:01:54.499Z,10.77
2018-09-20T06:05:59.023Z,10.40
2018-09-20T06:10:03.265Z,10.00
2018-09-20T06:14:07.700Z,8.87
2018-09-20T06:18:11.995Z,9.57
2018-09-20T06:22:16.454Z,7.87
2018-09-20T06:26:20.900Z,10.50
2018-09-20T06:30:25.187Z,10.23
2018-09-20T06:35:07.929Z,10.60
2018-09-20T06:39:13.174Z,11.13
2018-09-20T06:43:17.407Z,12.77
2018-09-20T06:47:21.745Z,15.93
2018-09-20T06:51:26.002Z,10.70
2018-09-20T06:55:30.197Z,12.87
2018-09-20T06:59:34.530Z,12.00
2018-09-20T07:03:38.752Z,12.10
2018-09-20T07:07:43.040Z,16.33
2018-09-20T07:11:47.252Z,14.00
2018-09-20T07:15:51.531Z,10.97
2018-09-20T07:19:55.740Z,8.60
2018-09-20T07:23:59.969Z,9.60
2018-09-20T07:28:04.192Z,6.60
2018-09-20T07:32:08.538Z,7.97
2018-09-20T07:36:12.776Z,7.93
2018-09-20T07:40:18.185Z,6.57
2018-09-20T07:44:22.445Z,6.63
2018-09-20T07:48:26.749Z,7.27
2018-09-20T07:52:30.967Z,6.60
2018-09-20T07:56:35.306Z,6.27
2018-09-20T08:00:39.609Z,5.93
2018-09-20T08:04:43.873Z,6.70
2018-09-20T08:08:48.323Z,6.40
2018-09-20T08:12:52.592Z,4.97
2018-09-20T08:16:56.898Z,5.23
2018-09-20T08:21:12.610Z,7.03
2018-09-20T08:25:16.898Z,5.77
2018-09-20T08:29:21.155Z,6.87
2018-09-20T08:33:25.520Z,7.73
2018-09-20T08:37:29.785Z,5.23
2018-09-20T08:41:34.148Z,5.90
2018-09-20T08:45:38.463Z,6.73
2018-09-20T08:49:42.706Z,6.07
2018-09-20T08:53:47.068Z,5.43
2018-09-20T08:57:55.626Z,4.37
2018-09-20T09:01:59.871Z,5.87
2018-09-20T09:06:04.096Z,4.93
2018-09-20T09:10:08.469Z,5.30
2018-09-20T09:14:12.695Z,5.90
2018-09-20T09:18:17.074Z,5.20
2018-09-20T09:22:21.277Z,3.93
2018-09-20T09:26:25.647Z,4.47
2018-09-20T09:30:29.868Z,5.17
2018-09-20T09:34:34.232Z,4.23
2018-09-20T09:38:38.498Z,4.80
2018-09-20T09:42:42.789Z,4.23
2018-09-20T09:46:47.000Z,3.67
2018-09-20T09:50:51.343Z,4.07
2018-09-20T09:54:55.786Z,4.20
2018-09-20T09:59:00.015Z,4.50
2018-09-20T10:03:04.339Z,4.00
2018-09-20T10:07:08.700Z,4.03
2018-09-20T10:11:12.924Z,4.00
2018-09-20T10:15:17.507Z,3.80
2018-09-20T10:19:21.866Z,3.93
2018-09-20T10:23:26.051Z,4.00
2018-09-20T10:27:30.501Z,3.77
2018-09-20T10:31:34.709Z,3.60
2018-09-20T10:35:39.072Z,3.17
2018-09-20T10:39:43.267Z,3.53
2018-09-20T10:43:47.593Z,3.20
2018-09-20T10:47:51.772Z,3.30
2018-09-20T10:51:56.005Z,3.30
2018-09-20T10:56:00.376Z,3.50
2018-09-20T11:00:04.766Z,3.00
2018-09-20T11:04:09.141Z,3.07
2018-09-20T11:08:13.408Z,3.13
2018-09-20T11:12:17.713Z,3.80
2018-09-20T11:16:21.943Z,3.47
2018-09-20T11:20:26.298Z,3.60
2018-09-20T11:24:30.629Z,2.70
2018-09-20T11:28:35.017Z,2.90
2018-09-20T11:32:39.248Z,2.43
2018-09-20T11:36:43.792Z,2.83
2018-09-20T11:40:48.296Z,3.37
2018-09-20T11:44:52.701Z,2.90
2018-09-20T11:48:57.049Z,3.60
2018-09-20T11:53:01.309Z,3.70
2018-09-20T11:57:05.538Z,4.30
2018-09-20T12:01:09.735Z,3.10
2018-09-20T12:05:14.097Z,3.20
2018-09-20T12:09:18.353Z,3.27
2018-09-20T12:13:22.581Z,3.87
2018-09-20T12:17:26.905Z,3.37
2018-09-20T12:21:31.128Z,3.50
2018-09-20T12:25:35.657Z,3.50
2018-09-20T12:29:39.921Z,3.10
2018-09-20T12:33:44.178Z,3.83
2018-09-20T12:37:48.621Z,2.90
2018-09-20T12:41:52.809Z,2.73
2018-09-20T12:45:57.184Z,2.90
2018-09-20T12:50:01.438Z,4.83
2018-09-20T12:54:05.865Z,3.27
2018-09-20T12:58:10.166Z,3.50
2018-09-20T13:02:15.793Z,2.83
2018-09-20T13:06:20.298Z,3.73
2018-09-20T13:10:25.167Z,3.80
2018-09-20T13:14:29.549Z,3.67
2018-09-20T13:18:33.755Z,3.37
2018-09-20T13:22:38.080Z,3.27
2018-09-20T13:26:42.320Z,4.20
2018-09-20T13:30:46.674Z,3.10
2018-09-20T13:34:52.404Z,3.43
2018-09-20T13:38:56.918Z,3.63
2018-09-20T13:43:01.160Z,4.00
2018-09-20T13:47:05.701Z,3.70
2018-09-20T13:51:09.957Z,3.10
2018-09-20T13:55:14.165Z,2.10
2018-09-20T13:59:18.410Z,3.10
2018-09-20T14:03:22.639Z,2.77
2018-09-20T14:07:26.853Z,3.47
2018-09-20T14:11:31.174Z,3.03
2018-09-20T14:15:35.624Z,3.37
2018-09-20T14:19:39.779Z,2.80
2018-09-20T14:23:44.233Z,4.23
2018-09-20T14:27:48.525Z,3.50
2018-09-20T14:31:52.912Z,3.50
2018-09-20T14:35:57.320Z,3.77
2018-09-20T14:40:01.588Z,3.57
2018-09-20T14:44:06.089Z,3.37
2018-09-20T14:48:10.318Z,3.40
2018-09-20T14:52:14.625Z,4.17
2018-09-20T14:56:19.177Z,4.30
2018-09-20T15:00:24.225Z,5.13
2018-09-20T15:04:31.112Z,4.43
2018-09-20T15:08:35.409Z,4.50
2018-09-20T15:12:39.624Z,4.33
2018-09-20T15:16:44.009Z,4.10
2018-09-20T15:20:48.612Z,5.40
2018-09-20T15:24:52.799Z,5.57
2018-09-20T15:28:58.065Z,6.13
2018-09-20T15:33:02.656Z,4.60
2018-09-20T15:37:06.940Z,4.47
2018-09-20T15:41:13.224Z,4.00
2018-09-20T15:45:18.434Z,5.57
2018-09-20T15:49:22.807Z,5.07
2018-09-20T15:53:32.518Z,5.73
2018-09-20T15:57:45.021Z,5.37
2018-09-20T16:01:54.809Z,5.93
2018-09-20T16:05:59.300Z,5.30
2018-09-20T16:10:03.624Z,4.30
2018-09-20T16:14:08.270Z,5.17
2018-09-20T16:18:13.493Z,9.27
2018-09-20T16:22:17.913Z,6.07
2018-09-20T16:26:22.123Z,6.43
2018-09-20T16:30:37.694Z,6.13
2018-09-20T16:35:19.221Z,5.70
2018-09-20T16:39:24.470Z,5.03
2018-09-20T16:43:28.792Z,6.03
2018-09-20T16:47:33.223Z,4.83
2018-09-20T16:51:37.641Z,6.80
2018-09-20T16:55:41.978Z,5.90
2018-09-20T16:59:46.715Z,6.37
2018-09-20T17:03:51.311Z,6.90
2018-09-20T17:07:55.895Z,6.63
2018-09-20T17:12:00.421Z,7.10
2018-09-20T17:16:04.835Z,5.77
2018-09-20T17:20:09.071Z,7.17
2018-09-20T17:24:13.547Z,8.40
2018-09-20T17:28:17.881Z,8.27
2018-09-20T17:32:22.231Z,6.50
2018-09-20T17:36:26.747Z,8.07
2018-09-20T17:40:32.951Z,10.03
2018-09-20T17:44:37.157Z,7.73
2018-09-20T17:48:41.494Z,7.87
2018-09-20T17:52:46.402Z,8.80
2018-09-20T17:56:51.367Z,8.43
2018-09-20T18:00:55.655Z,9.03
2018-09-20T18:05:00.181Z,6.97
2018-09-20T18:09:05.002Z,9.23
2018-09-20T18:13:09.512Z,8.93
2018-09-20T18:17:13.744Z,8.40
2018-09-20T18:21:18.061Z,7.90
2018-09-20T18:25:22.523Z,7.90
2018-09-20T18:29:27.213Z,8.70
2018-09-20T18:33:35.828Z,7.70
2018-09-20T18:37:45.839Z,7.90
2018-09-20T18:46:51.919Z,6.73
2018-09-20T18:50:56.630Z,9.40
2018-09-20T18:55:01.581Z,11.70
2018-09-20T18:59:08.423Z,8.57
2018-09-20T19:03:13.546Z,8.77
2018-09-20T19:07:27.328Z,8.30
2018-09-20T19:11:32.064Z,7.53
2018-09-20T19:15:37.084Z,7.37
2018-09-20T19:19:41.762Z,9.50
2018-09-20T19:23:47.104Z,9.80
2018-09-20T19:27:51.809Z,11.60
2018-09-20T19:31:57.129Z,8.23
2018-09-20T19:36:02.072Z,10.73
2018-09-20T19:40:06.843Z,8.33
2018-09-20T19:52:49.099Z,12.03
2018-09-20T19:56:53.537Z,7.60
2018-09-20T20:00:59.025Z,9.70
2018-09-20T20:05:03.835Z,10.30
2018-09-20T20:09:13.135Z,9.60
2018-09-20T20:13:17.591Z,9.70
2018-09-20T20:17:22.307Z,7.73
2018-09-20T20:21:26.517Z,8.33
2018-09-20T20:25:30.809Z,8.10
2018-09-20T20:29:35.019Z,9.90
2018-09-20T20:33:39.482Z,10.17
2018-09-20T20:37:43.752Z,9.80
2018-09-20T20:41:48.241Z,9.80
2018-09-20T20:45:52.841Z,10.03
2018-09-20T20:49:57.136Z,8.50
2018-09-20T20:54:01.426Z,9.00
2018-09-20T20:58:05.739Z,8.50
2018-09-20T21:02:09.938Z,9.87
2018-09-20T21:06:14.340Z,9.83
2018-09-20T21:10:18.668Z,10.97
2018-09-20T21:14:22.992Z,8.10
2018-09-20T21:18:27.213Z,11.80
2018-09-20T21:22:31.561Z,10.37
2018-09-20T21:26:35.785Z,10.60
2018-09-20T21:30:40.091Z,11.20
2018-09-20T21:34:44.412Z,9.27
2018-09-20T21:38:48.885Z,13.47
2018-09-20T21:42:53.075Z,7.97
2018-09-20T21:46:57.395Z,8.53
2018-09-20T21:51:01.672Z,10.73
2018-09-20T21:55:06.325Z,9.50
2018-09-20T21:59:10.662Z,9.63
2018-09-20T22:03:14.957Z,10.43
2018-09-20T22:07:19.260Z,10.60
2018-09-20T22:11:23.753Z,10.00
2018-09-20T22:15:29.518Z,8.97
2018-09-20T22:19:33.965Z,11.53
2018-09-20T22:23:38.625Z,9.03
2018-09-20T22:27:43.264Z,11.17
2018-09-20T22:31:47.936Z,12.77
2018-09-20T22:35:52.612Z,9.43
2018-09-20T22:39:57.337Z,10.17
2018-09-20T22:44:01.888Z,9.27
2018-09-20T22:48:06.691Z,10.67
2018-09-20T22:52:11.366Z,10.27
2018-09-20T22:56:15.939Z,9.77
2018-09-20T23:00:23.285Z,10.63
2018-09-20T23:04:27.724Z,9.03
2018-09-20T23:08:32.516Z,8.27
2018-09-20T23:12:37.069Z,10.00
2018-09-20T23:16:41.920Z,7.90
2018-09-20T23:20:46.153Z,9.70
2018-09-20T23:24:50.387Z,11.17
2018-09-20T23:28:54.659Z,10.83
2018-09-20T23:32:59.124Z,9.53
2018-09-20T23:37:03.348Z,12.83
2018-09-20T23:41:07.619Z,10.87
2018-09-20T23:45:11.912Z,12.47
2018-09-20T23:49:16.161Z,8.57
2018-09-20T23:53:20.402Z,9.20
2018-09-20T23:57:24.725Z,10.43
